createdAt,value
2023-01-05T00:03:04.000Z,8.60
2023-01-05T00:08:08.105Z,8.60
2023-01-05T00:13:33.223Z,8.50
2023-01-05T00:19:15.591Z,8.50
2023-01-05T00:24:19.956Z,8.40
2023-01-05T00:29:24.268Z,8.30
2023-01-05T00:34:28.505Z,8.30
2023-01-05T00:39:32.419Z,8.20
2023-01-05T00:44:36.426Z,8.20
2023-01-05T00:49:40.481Z,8.20
2023-01-05T00:54:44.376Z,8.20
2023-01-05T00:59:48.361Z,8.20
2023-01-05T01:04:52.296Z,8.20
2023-01-05T01:09:56.085Z,8.20
2023-01-05T01:15:00.195Z,8.20
2023-01-05T01:20:05.390Z,8.20
2023-01-05T01:25:10.250Z,8.30
2023-01-05T01:30:18.106Z,8.40
2023-01-05T01:35:25.785Z,8.50
2023-01-05T01:40:30.005Z,8.40
2023-01-05T01:45:34.814Z,8.50
2023-01-05T01:51:08.059Z,8.50
2023-01-05T01:56:39.579Z,8.60
2023-01-05T02:01:43.722Z,8.60
2023-01-05T02:06:47.976Z,8.60
2023-01-05T02:12:07.777Z,8.70
2023-01-05T02:17:36.376Z,8.70
2023-01-05T02:23:20.504Z,8.70
2023-01-05T02:28:33.085Z,8.70
2023-01-05T02:33:56.627Z,8.70
2023-01-05T02:39:32.504Z,8.80
2023-01-05T02:44:36.397Z,8.80
2023-01-05T02:49:42.519Z,8.80
2023-01-05T02:55:00.780Z,8.70
2023-01-05T03:00:07.007Z,8.70
2023-01-05T03:05:18.258Z,8.70
2023-01-05T03:10:42.426Z,8.70
2023-01-05T03:15:47.580Z,8.70
2023-01-05T03:20:53.626Z,8.60
2023-01-05T03:26:16.756Z,8.70
2023-01-05T03:32:12.296Z,8.70
2023-01-05T03:37:26.358Z,8.80
2023-01-05T03:42:37.804Z,8.80
2023-01-05T03:47:42.658Z,8.80
2023-01-05T03:52:51.636Z,8.80
2023-01-05T03:57:56.631Z,8.80
2023-01-05T04:03:13.044Z,8.80
2023-01-05T04:08:17.718Z,8.70
2023-01-05T04:13:32.021Z,8.70
2023-01-05T04:18:39.740Z,8.70
2023-01-05T04:23:48.112Z,8.70
2023-01-05T04:28:54.719Z,8.70
2023-01-05T04:34:05.084Z,8.80
2023-01-05T04:39:16.744Z,8.70
2023-01-05T04:44:30.875Z,8.80
2023-01-05T04:49:34.988Z,8.80
2023-01-05T04:54:38.847Z,8.80
2023-01-05T04:59:45.994Z,8.70
2023-01-05T05:04:52.953Z,8.70
2023-01-05T05:09:56.657Z,8.60
2023-01-05T05:15:00.431Z,8.70
2023-01-05T05:20:05.729Z,8.70
2023-01-05T05:25:16.751Z,8.80
2023-01-05T05:30:41.301Z,8.70
2023-01-05T05:35:50.668Z,8.80
2023-01-05T05:40:54.479Z,8.80
2023-01-05T05:46:00.483Z,8.80
2023-01-05T05:51:04.390Z,8.80
2023-01-05T05:56:09.084Z,8.80
2023-01-05T06:01:13.859Z,8.70
2023-01-05T06:06:17.693Z,8.70
2023-01-05T06:11:24.865Z,8.70
2023-01-05T06:16:31.659Z,8.40
2023-01-05T06:21:38.683Z,7.60
2023-01-05T06:26:44.204Z,7.40
2023-01-05T06:31:48.120Z,7.30
2023-01-05T06:36:52.013Z,7.30
2023-01-05T06:41:57.830Z,7.30
2023-01-05T06:47:01.976Z,7.30
2023-01-05T06:52:08.529Z,7.30
2023-01-05T06:57:16.256Z,7.20
2023-01-05T07:02:20.249Z,7.10
2023-01-05T07:07:25.332Z,7.10
2023-01-05T07:12:29.363Z,7.00
2023-01-05T07:17:33.957Z,7.00
2023-01-05T07:22:37.903Z,7.00
2023-01-05T07:27:41.737Z,7.00
2023-01-05T07:32:45.403Z,7.00
2023-01-05T07:37:50.610Z,7.10
2023-01-05T07:43:00.107Z,7.10
2023-01-05T07:48:04.486Z,7.10
2023-01-05T07:53:08.495Z,7.10
2023-01-05T07:58:12.442Z,7.20
2023-01-05T08:03:24.049Z,7.20
2023-01-05T08:08:28.282Z,7.30
2023-01-05T08:13:52.989Z,7.40
2023-01-05T08:18:57.825Z,7.60
2023-01-05T08:24:04.312Z,7.60
2023-01-05T08:29:10.183Z,7.70
2023-01-05T08:34:22.011Z,7.70
2023-01-05T08:39:26.503Z,7.70
2023-01-05T08:44:36.194Z,7.70
2023-01-05T08:49:41.696Z,7.70
2023-01-05T08:54:56.987Z,7.70
2023-01-05T09:06:22.722Z,8.00
2023-01-05T09:11:38.873Z,8.10
2023-01-05T09:22:09.660Z,8.20
2023-01-05T09:27:23.461Z,8.40
2023-01-05T09:32:27.424Z,8.40
2023-01-05T09:37:34.405Z,8.50
2023-01-05T09:42:45.832Z,8.60
2023-01-05T09:47:50.525Z,8.70
2023-01-05T09:52:59.955Z,9.00
2023-01-05T09:58:29.669Z,9.10
2023-01-05T10:04:02.811Z,9.10
2023-01-05T10:09:05.706Z,9.00
2023-01-05T10:14:43.859Z,9.00
2023-01-05T10:19:52.692Z,8.80
2023-01-05T10:25:14.651Z,8.80
2023-01-05T10:30:45.223Z,8.70
2023-01-05T10:36:23.770Z,8.70
2023-01-05T10:42:06.835Z,8.70
2023-01-05T10:47:16.855Z,8.70
2023-01-05T10:52:31.914Z,8.80
2023-01-05T10:57:43.193Z,8.70
2023-01-05T11:03:09.904Z,8.60
2023-01-05T11:08:26.684Z,8.50
2023-01-05T11:13:50.885Z,8.40
2023-01-05T11:19:06.222Z,8.30
2023-01-05T11:24:29.502Z,8.40
2023-01-05T11:29:47.797Z,8.40
2023-01-05T11:34:55.365Z,8.40
2023-01-05T11:40:01.698Z,8.30
2023-01-05T11:45:21.656Z,8.30
2023-01-05T11:50:36.503Z,8.20
2023-01-05T11:55:45.842Z,8.20
2023-01-05T12:01:02.462Z,8.20
2023-01-05T12:06:45.844Z,8.10
2023-01-05T12:12:09.895Z,8.10
2023-01-05T12:17:50.026Z,8.10
2023-01-05T12:23:12.953Z,8.10
2023-01-05T12:28:41.861Z,8.20
2023-01-05T12:34:06.039Z,8.20
2023-01-05T12:40:00.252Z,8.30
2023-01-05T12:45:31.460Z,8.20
2023-01-05T12:51:41.585Z,8.20
2023-01-05T12:56:58.454Z,8.10
2023-01-05T13:02:27.661Z,8.00
2023-01-05T13:07:37.724Z,7.90
2023-01-05T13:12:52.573Z,7.80
2023-01-05T13:17:59.516Z,7.60
2023-01-05T13:23:15.042Z,7.40
2023-01-05T13:28:24.029Z,7.20
2023-01-05T13:34:00.036Z,7.00
2023-01-05T13:39:30.485Z,6.90
2023-01-05T13:44:48.286Z,6.70
2023-01-05T13:50:38.904Z,6.60
2023-01-05T13:56:06.874Z,6.40
2023-01-05T14:01:15.917Z,6.40
2023-01-05T14:06:25.426Z,6.30
2023-01-05T14:11:30.428Z,6.10
2023-01-05T14:16:37.576Z,6.10
2023-01-05T14:22:04.493Z,6.00
2023-01-05T14:27:13.843Z,5.90
2023-01-05T14:32:41.610Z,5.90
2023-01-05T14:38:23.899Z,5.90
2023-01-05T14:43:34.235Z,5.90
2023-01-05T14:48:44.659Z,5.80
2023-01-05T14:54:00.964Z,5.80
2023-01-05T14:59:25.626Z,5.70
2023-01-05T15:04:35.412Z,5.70
2023-01-05T15:10:17.773Z,5.70
2023-01-05T15:15:44.893Z,5.70
2023-01-05T15:21:20.093Z,5.70
2023-01-05T15:26:59.139Z,5.70
2023-01-05T15:32:36.082Z,5.70
2023-01-05T15:37:50.905Z,5.70
2023-01-05T15:43:02.984Z,5.80
2023-01-05T15:48:17.812Z,5.80
2023-01-05T15:53:45.289Z,5.80
2023-01-05T15:58:54.573Z,5.70
2023-01-05T16:04:14.443Z,5.70
2023-01-05T16:09:36.627Z,5.70
2023-01-05T16:14:51.681Z,5.70
2023-01-05T16:20:20.280Z,5.70
2023-01-05T16:25:35.301Z,5.70
2023-01-05T16:30:42.268Z,5.60
2023-01-05T16:35:50.611Z,5.60
2023-01-05T16:41:13.918Z,5.50
2023-01-05T16:46:20.326Z,5.50
2023-01-05T16:51:41.179Z,5.50
2023-01-05T16:56:54.498Z,5.50
2023-01-05T17:01:59.082Z,5.50
2023-01-05T17:07:11.385Z,5.50
2023-01-05T17:12:18.677Z,5.50
2023-01-05T17:17:28.574Z,5.50
2023-01-05T17:22:32.814Z,5.60
2023-01-05T17:27:36.215Z,5.50
2023-01-05T17:32:39.664Z,5.50
2023-01-05T17:37:44.481Z,5.40
2023-01-05T17:42:49.665Z,5.40
2023-01-05T17:47:53.915Z,5.40
2023-01-05T17:52:59.375Z,5.30
2023-01-05T17:58:03.460Z,5.30
2023-01-05T18:03:07.824Z,5.30
2023-01-05T18:08:12.695Z,5.30
2023-01-05T18:13:23.383Z,5.30
2023-01-05T18:18:29.848Z,5.10
2023-01-05T18:23:34.594Z,4.90
2023-01-05T18:28:39.406Z,4.80
2023-01-05T18:33:44.238Z,4.80
2023-01-05T18:38:48.149Z,4.80
2023-01-05T18:43:53.864Z,4.80
2023-01-05T18:48:57.830Z,4.80
2023-01-05T18:54:02.012Z,4.80
2023-01-05T18:59:06.284Z,4.70
2023-01-05T19:04:14.748Z,4.70
2023-01-05T19:09:19.503Z,4.70
2023-01-05T19:14:24.266Z,4.60
2023-01-05T19:19:28.348Z,4.60
2023-01-05T19:24:32.619Z,4.60
2023-01-05T19:29:36.808Z,4.50
2023-01-05T19:34:42.598Z,4.50
2023-01-05T19:39:46.576Z,4.50
2023-01-05T19:44:51.156Z,4.40
2023-01-05T19:49:55.724Z,4.40
2023-01-05T19:54:59.806Z,4.40
2023-01-05T20:00:04.594Z,4.40
2023-01-05T20:05:09.693Z,4.30
2023-01-05T20:10:15.710Z,4.20
2023-01-05T20:15:20.960Z,4.30
2023-01-05T20:20:28.132Z,4.40
2023-01-05T20:25:33.796Z,4.20
2023-01-05T20:30:40.633Z,4.20
2023-01-05T20:35:44.823Z,4.20
2023-01-05T20:40:49.193Z,4.10
2023-01-05T20:45:53.547Z,4.10
2023-01-05T20:51:11.380Z,4.10
2023-01-05T20:56:28.754Z,4.10
2023-01-05T21:01:33.292Z,4.20
2023-01-05T21:06:39.378Z,4.10
2023-01-05T21:11:44.833Z,4.10
2023-01-05T21:16:52.616Z,4.10
2023-01-05T21:21:57.913Z,4.00
2023-01-05T21:27:03.321Z,4.00
2023-01-05T21:32:10.697Z,4.00
2023-01-05T21:37:15.040Z,4.00
2023-01-05T21:42:37.439Z,3.90
2023-01-05T21:47:41.336Z,3.90
2023-01-05T21:53:05.232Z,3.90
2023-01-05T21:58:09.998Z,3.90
2023-01-05T22:03:14.662Z,3.80
2023-01-05T22:08:19.973Z,3.80
2023-01-05T22:13:26.483Z,3.90
2023-01-05T22:18:33.006Z,3.80
2023-01-05T22:23:37.892Z,3.80
2023-01-05T22:28:43.993Z,3.80
2023-01-05T22:33:51.737Z,3.80
2023-01-05T22:38:56.866Z,3.70
2023-01-05T22:44:04.401Z,3.60
2023-01-05T22:49:10.506Z,3.60
2023-01-05T22:54:16.873Z,3.50
2023-01-05T22:59:20.963Z,3.50
2023-01-05T23:04:24.793Z,3.40
2023-01-05T23:09:28.668Z,3.30
2023-01-05T23:14:32.382Z,3.20
2023-01-05T23:19:36.202Z,3.20
2023-01-05T23:24:40.064Z,3.20
2023-01-05T23:29:43.483Z,3.30
2023-01-05T23:34:46.988Z,3.30
2023-01-05T23:39:50.552Z,3.30
2023-01-05T23:44:54.374Z,3.20
2023-01-05T23:49:58.296Z,3.10
2023-01-05T23:55:02.535Z,2.90
